Terminal Aerodrome Forecast
Issued by NWS

Home | Current Version | Previous Version | Text Only | Print | Product List | Glossary On
Versions: 1 2 3 4 5 6 7 8 9 10 11 12 13 14 15 16 17 18 19
000
FTUS43 KMPX 260702 AAA
TAFRNH
TAF AMD
KRNH 260702Z 2607/2706 VRB02KT 4SM BR SCT070
      TEMPO 2607/2609 1SM BR VV005
     FM260900 VRB02KT 2SM BR SCT005 SCT020
      TEMPO 2609/2612 1/2SM FG VV002
     FM261200 34004KT P6SM SCT008 OVC012
     FM261700 02003KT P6SM VCTS SCT020 OVC050CB
     FM270000 34004KT P6SM BKN050=

USA.gov is the U.S. government's official web portal to all federal, state and local government web resources and services.